sensor_id;sensor_type;location;lat;lon;timestamp;P1;durP1;ratioP1;P2;durP2;ratioP2
6626;SDS011;3349;49.830;8.748;2024-01-27T00:00:25;13.40;;;4.40;;
6626;SDS011;3349;49.830;8.748;2024-01-27T00:02:52;9.57;;;3.65;;
6626;SDS011;3349;49.830;8.748;2024-01-27T00:05:20;8.93;;;3.22;;
6626;SDS011;3349;49.830;8.748;2024-01-27T00:07:46;12.23;;;2.72;;
6626;SDS011;3349;49.830;8.748;2024-01-27T00:10:13;10.05;;;3.13;;
6626;SDS011;3349;49.830;8.748;2024-01-27T00:12:40;10.25;;;3.00;;
6626;SDS011;3349;49.830;8.748;2024-01-27T00:15:07;7.43;;;2.60;;
6626;SDS011;3349;49.830;8.748;2024-01-27T00:17:34;10.80;;;3.47;;
6626;SDS011;3349;49.830;8.748;2024-01-27T00:20:01;13.33;;;4.17;;
6626;SDS011;3349;49.830;8.748;2024-01-27T00:22:29;12.18;;;3.83;;
6626;SDS011;3349;49.830;8.748;2024-01-27T00:24:56;11.53;;;3.57;;
6626;SDS011;3349;49.830;8.748;2024-01-27T00:27:23;10.05;;;2.95;;
6626;SDS011;3349;49.830;8.748;2024-01-27T00:29:49;11.57;;;2.88;;
6626;SDS011;3349;49.830;8.748;2024-01-27T00:32:16;13.68;;;3.28;;
6626;SDS011;3349;49.830;8.748;2024-01-27T00:34:43;8.98;;;2.75;;
6626;SDS011;3349;49.830;8.748;2024-01-27T00:37:09;7.45;;;3.08;;
6626;SDS011;3349;49.830;8.748;2024-01-27T00:39:37;7.10;;;2.50;;
6626;SDS011;3349;49.830;8.748;2024-01-27T00:42:04;8.32;;;2.60;;
6626;SDS011;3349;49.830;8.748;2024-01-27T00:44:31;4.28;;;2.60;;
6626;SDS011;3349;49.830;8.748;2024-01-27T00:46:57;5.63;;;2.60;;
6626;SDS011;3349;49.830;8.748;2024-01-27T00:49:27;22.45;;;2.75;;
6626;SDS011;3349;49.830;8.748;2024-01-27T00:51:54;9.38;;;2.50;;
6626;SDS011;3349;49.830;8.748;2024-01-27T00:54:21;10.65;;;2.88;;
6626;SDS011;3349;49.830;8.748;2024-01-27T00:56:49;6.87;;;2.97;;
6626;SDS011;3349;49.830;8.748;2024-01-27T00:59:15;11.30;;;3.63;;
6626;SDS011;3349;49.830;8.748;2024-01-27T01:01:42;7.47;;;3.33;;
6626;SDS011;3349;49.830;8.748;2024-01-27T01:04:09;8.68;;;2.95;;
6626;SDS011;3349;49.830;8.748;2024-01-27T01:06:38;15.70;;;3.25;;
6626;SDS011;3349;49.830;8.748;2024-01-27T01:09:05;9.53;;;3.30;;
6626;SDS011;3349;49.830;8.748;2024-01-27T01:11:31;7.40;;;3.00;;
6626;SDS011;3349;49.830;8.748;2024-01-27T01:13:59;11.75;;;3.55;;
6626;SDS011;3349;49.830;8.748;2024-01-27T01:16:26;11.93;;;4.00;;
6626;SDS011;3349;49.830;8.748;2024-01-27T01:18:53;15.80;;;3.77;;
6626;SDS011;3349;49.830;8.748;2024-01-27T01:21:20;13.77;;;3.50;;
6626;SDS011;3349;49.830;8.748;2024-01-27T01:23:46;9.10;;;3.10;;
6626;SDS011;3349;49.830;8.748;2024-01-27T01:26:13;8.40;;;3.07;;
6626;SDS011;3349;49.830;8.748;2024-01-27T01:28:40;8.53;;;3.07;;
6626;SDS011;3349;49.830;8.748;2024-01-27T01:31:09;9.03;;;3.43;;
6626;SDS011;3349;49.830;8.748;2024-01-27T01:33:36;11.10;;;3.83;;
6626;SDS011;3349;49.830;8.748;2024-01-27T01:36:03;12.63;;;3.30;;
6626;SDS011;3349;49.830;8.748;2024-01-27T01:38:30;15.37;;;3.93;;
6626;SDS011;3349;49.830;8.748;2024-01-27T01:40:57;10.50;;;4.83;;
6626;SDS011;3349;49.830;8.748;2024-01-27T01:43:23;19.27;;;5.03;;
6626;SDS011;3349;49.830;8.748;2024-01-27T01:45:50;13.00;;;4.70;;
6626;SDS011;3349;49.830;8.748;2024-01-27T01:48:20;12.87;;;5.03;;
6626;SDS011;3349;49.830;8.748;2024-01-27T01:50:47;9.13;;;4.27;;
6626;SDS011;3349;49.830;8.748;2024-01-27T01:53:14;15.33;;;4.60;;
6626;SDS011;3349;49.830;8.748;2024-01-27T01:55:40;10.87;;;4.83;;
6626;SDS011;3349;49.830;8.748;2024-01-27T01:58:07;12.23;;;4.57;;
6626;SDS011;3349;49.830;8.748;2024-01-27T02:00:34;15.70;;;4.57;;
6626;SDS011;3349;49.830;8.748;2024-01-27T02:03:01;14.03;;;3.80;;
6626;SDS011;3349;49.830;8.748;2024-01-27T02:05:29;10.97;;;3.47;;
6626;SDS011;3349;49.830;8.748;2024-01-27T02:07:57;9.97;;;3.90;;
6626;SDS011;3349;49.830;8.748;2024-01-27T02:10:25;6.53;;;3.67;;
6626;SDS011;3349;49.830;8.748;2024-01-27T02:12:52;12.13;;;4.17;;
6626;SDS011;3349;49.830;8.748;2024-01-27T02:15:19;13.70;;;3.50;;
6626;SDS011;3349;49.830;8.748;2024-01-27T02:17:46;10.07;;;3.70;;
6626;SDS011;3349;49.830;8.748;2024-01-27T02:20:13;11.53;;;3.53;;
6626;SDS011;3349;49.830;8.748;2024-01-27T02:22:41;9.20;;;3.53;;
6626;SDS011;3349;49.830;8.748;2024-01-27T02:25:09;14.93;;;4.17;;
6626;SDS011;3349;49.830;8.748;2024-01-27T02:27:36;11.43;;;3.20;;
6626;SDS011;3349;49.830;8.748;2024-01-27T02:30:03;7.93;;;3.43;;
6626;SDS011;3349;49.830;8.748;2024-01-27T02:32:30;12.80;;;3.50;;
6626;SDS011;3349;49.830;8.748;2024-01-27T02:34:56;9.87;;;4.20;;
6626;SDS011;3349;49.830;8.748;2024-01-27T02:37:23;14.13;;;4.20;;
6626;SDS011;3349;49.830;8.748;2024-01-27T02:39:50;12.87;;;5.50;;
6626;SDS011;3349;49.830;8.748;2024-01-27T02:42:18;10.33;;;4.00;;
6626;SDS011;3349;49.830;8.748;2024-01-27T02:44:44;11.93;;;3.53;;
6626;SDS011;3349;49.830;8.748;2024-01-27T02:47:11;10.93;;;3.90;;
6626;SDS011;3349;49.830;8.748;2024-01-27T02:49:38;13.60;;;3.90;;
6626;SDS011;3349;49.830;8.748;2024-01-27T02:52:04;11.27;;;3.33;;
6626;SDS011;3349;49.830;8.748;2024-01-27T02:54:31;10.87;;;3.47;;
6626;SDS011;3349;49.830;8.748;2024-01-27T02:56:58;7.40;;;2.97;;
6626;SDS011;3349;49.830;8.748;2024-01-27T02:59:26;7.07;;;3.23;;
6626;SDS011;3349;49.830;8.748;2024-01-27T03:01:52;6.03;;;3.40;;
6626;SDS011;3349;49.830;8.748;2024-01-27T03:04:19;6.77;;;2.80;;
6626;SDS011;3349;49.830;8.748;2024-01-27T03:06:46;8.87;;;3.20;;
6626;SDS011;3349;49.830;8.748;2024-01-27T03:09:13;5.63;;;2.90;;
6626;SDS011;3349;49.830;8.748;2024-01-27T03:11:40;7.43;;;3.17;;
6626;SDS011;3349;49.830;8.748;2024-01-27T03:14:06;11.60;;;2.80;;
6626;SDS011;3349;49.830;8.748;2024-01-27T03:16:34;5.80;;;2.60;;
6626;SDS011;3349;49.830;8.748;2024-01-27T03:19:01;6.17;;;2.43;;
6626;SDS011;3349;49.830;8.748;2024-01-27T03:21:29;8.77;;;3.00;;
6626;SDS011;3349;49.830;8.748;2024-01-27T03:23:55;6.77;;;4.07;;
6626;SDS011;3349;49.830;8.748;2024-01-27T03:26:22;12.30;;;3.70;;
6626;SDS011;3349;49.830;8.748;2024-01-27T03:28:50;12.47;;;3.87;;
6626;SDS011;3349;49.830;8.748;2024-01-27T03:31:16;8.27;;;3.47;;
6626;SDS011;3349;49.830;8.748;2024-01-27T03:33:44;5.67;;;2.83;;
6626;SDS011;3349;49.830;8.748;2024-01-27T03:36:11;9.23;;;3.10;;
6626;SDS011;3349;49.830;8.748;2024-01-27T03:38:39;8.17;;;3.20;;
6626;SDS011;3349;49.830;8.748;2024-01-27T03:41:07;7.13;;;3.10;;
6626;SDS011;3349;49.830;8.748;2024-01-27T03:43:33;10.53;;;3.17;;
6626;SDS011;3349;49.830;8.748;2024-01-27T03:46:01;8.97;;;3.30;;
6626;SDS011;3349;49.830;8.748;2024-01-27T03:48:28;9.13;;;3.20;;
6626;SDS011;3349;49.830;8.748;2024-01-27T03:50:56;16.87;;;4.33;;
6626;SDS011;3349;49.830;8.748;2024-01-27T03:53:23;8.90;;;3.47;;
6626;SDS011;3349;49.830;8.748;2024-01-27T03:55:49;6.97;;;3.13;;
6626;SDS011;3349;49.830;8.748;2024-01-27T03:58:16;7.03;;;3.10;;
6626;SDS011;3349;49.830;8.748;2024-01-27T04:00:43;12.27;;;3.67;;
6626;SDS011;3349;49.830;8.748;2024-01-27T04:03:09;6.97;;;3.07;;
6626;SDS011;3349;49.830;8.748;2024-01-27T04:05:36;8.77;;;3.17;;
6626;SDS011;3349;49.830;8.748;2024-01-27T04:08:05;10.53;;;3.40;;
6626;SDS011;3349;49.830;8.748;2024-01-27T04:10:32;12.37;;;3.97;;
6626;SDS011;3349;49.830;8.748;2024-01-27T04:12:59;7.53;;;3.10;;
6626;SDS011;3349;49.830;8.748;2024-01-27T04:15:26;9.23;;;3.30;;
6626;SDS011;3349;49.830;8.748;2024-01-27T04:17:52;12.93;;;3.40;;
6626;SDS011;3349;49.830;8.748;2024-01-27T04:20:20;13.73;;;3.90;;
6626;SDS011;3349;49.830;8.748;2024-01-27T04:22:46;8.00;;;3.40;;
6626;SDS011;3349;49.830;8.748;2024-01-27T04:25:14;13.37;;;3.80;;
6626;SDS011;3349;49.830;8.748;2024-01-27T04:27:41;8.20;;;3.20;;
6626;SDS011;3349;49.830;8.748;2024-01-27T04:30:08;8.03;;;3.70;;
6626;SDS011;3349;49.830;8.748;2024-01-27T04:32:37;8.20;;;3.37;;
6626;SDS011;3349;49.830;8.748;2024-01-27T04:35:04;11.17;;;3.47;;
6626;SDS011;3349;49.830;8.748;2024-01-27T04:37:34;7.83;;;3.87;;
6626;SDS011;3349;49.830;8.748;2024-01-27T04:40:01;10.40;;;4.50;;
6626;SDS011;3349;49.830;8.748;2024-01-27T04:42:29;11.93;;;3.93;;
6626;SDS011;3349;49.830;8.748;2024-01-27T04:44:55;10.87;;;3.80;;
6626;SDS011;3349;49.830;8.748;2024-01-27T04:47:22;9.50;;;3.93;;
6626;SDS011;3349;49.830;8.748;2024-01-27T04:49:49;9.67;;;4.13;;
6626;SDS011;3349;49.830;8.748;2024-01-27T04:52:16;10.20;;;3.50;;
6626;SDS011;3349;49.830;8.748;2024-01-27T04:54:42;9.00;;;3.80;;
6626;SDS011;3349;49.830;8.748;2024-01-27T04:57:09;10.47;;;3.37;;
6626;SDS011;3349;49.830;8.748;2024-01-27T04:59:37;9.87;;;3.63;;
6626;SDS011;3349;49.830;8.748;2024-01-27T05:02:04;6.43;;;3.60;;
6626;SDS011;3349;49.830;8.748;2024-01-27T05:04:30;5.47;;;3.50;;
6626;SDS011;3349;49.830;8.748;2024-01-27T05:06:57;10.17;;;4.30;;
6626;SDS011;3349;49.830;8.748;2024-01-27T05:09:24;9.13;;;3.43;;
6626;SDS011;3349;49.830;8.748;2024-01-27T05:11:50;4.60;;;3.20;;
6626;SDS011;3349;49.830;8.748;2024-01-27T05:14:18;8.87;;;3.43;;
6626;SDS011;3349;49.830;8.748;2024-01-27T05:16:46;11.77;;;3.40;;
6626;SDS011;3349;49.830;8.748;2024-01-27T05:19:13;9.93;;;3.43;;
6626;SDS011;3349;49.830;8.748;2024-01-27T05:21:42;8.70;;;3.60;;
6626;SDS011;3349;49.830;8.748;2024-01-27T05:24:08;9.63;;;3.43;;
6626;SDS011;3349;49.830;8.748;2024-01-27T05:26:35;12.33;;;4.10;;
6626;SDS011;3349;49.830;8.748;2024-01-27T05:29:02;12.23;;;4.03;;
6626;SDS011;3349;49.830;8.748;2024-01-27T05:31:28;8.43;;;3.37;;
6626;SDS011;3349;49.830;8.748;2024-01-27T05:33:56;8.40;;;3.63;;
6626;SDS011;3349;49.830;8.748;2024-01-27T05:36:23;4.50;;;2.93;;
6626;SDS011;3349;49.830;8.748;2024-01-27T05:38:50;3.93;;;2.90;;
6626;SDS011;3349;49.830;8.748;2024-01-27T05:41:16;8.23;;;3.30;;
6626;SDS011;3349;49.830;8.748;2024-01-27T05:43:43;9.23;;;3.87;;
6626;SDS011;3349;49.830;8.748;2024-01-27T05:46:10;7.37;;;3.00;;
6626;SDS011;3349;49.830;8.748;2024-01-27T05:48:36;9.87;;;4.27;;
6626;SDS011;3349;49.830;8.748;2024-01-27T05:51:04;9.47;;;4.20;;
6626;SDS011;3349;49.830;8.748;2024-01-27T05:53:31;6.73;;;3.83;;
6626;SDS011;3349;49.830;8.748;2024-01-27T05:56:01;10.97;;;3.57;;
6626;SDS011;3349;49.830;8.748;2024-01-27T05:58:28;6.83;;;3.27;;
6626;SDS011;3349;49.830;8.748;2024-01-27T06:00:55;9.67;;;3.30;;
6626;SDS011;3349;49.830;8.748;2024-01-27T06:03:21;12.20;;;3.70;;
6626;SDS011;3349;49.830;8.748;2024-01-27T06:05:48;7.57;;;2.97;;
6626;SDS011;3349;49.830;8.748;2024-01-27T06:08:16;10.27;;;3.50;;
6626;SDS011;3349;49.830;8.748;2024-01-27T06:10:43;9.30;;;3.70;;
6626;SDS011;3349;49.830;8.748;2024-01-27T06:13:10;10.53;;;3.77;;
6626;SDS011;3349;49.830;8.748;2024-01-27T06:15:36;6.50;;;2.93;;
6626;SDS011;3349;49.830;8.748;2024-01-27T06:18:04;9.50;;;3.70;;
6626;SDS011;3349;49.830;8.748;2024-01-27T06:20:31;10.70;;;3.33;;
6626;SDS011;3349;49.830;8.748;2024-01-27T06:22:57;5.57;;;2.90;;
6626;SDS011;3349;49.830;8.748;2024-01-27T06:25:25;5.67;;;2.77;;
6626;SDS011;3349;49.830;8.748;2024-01-27T06:27:52;8.37;;;3.07;;
6626;SDS011;3349;49.830;8.748;2024-01-27T06:30:19;9.10;;;4.00;;
6626;SDS011;3349;49.830;8.748;2024-01-27T06:32:46;11.73;;;3.77;;
6626;SDS011;3349;49.830;8.748;2024-01-27T06:35:13;12.40;;;3.90;;
6626;SDS011;3349;49.830;8.748;2024-01-27T06:37:40;17.00;;;9.57;;
6626;SDS011;3349;49.830;8.748;2024-01-27T06:40:07;17.23;;;9.77;;
6626;SDS011;3349;49.830;8.748;2024-01-27T06:42:36;24.93;;;10.57;;
6626;SDS011;3349;49.830;8.748;2024-01-27T06:45:03;17.10;;;9.57;;
6626;SDS011;3349;49.830;8.748;2024-01-27T06:47:30;15.27;;;8.40;;
6626;SDS011;3349;49.830;8.748;2024-01-27T06:49:57;10.90;;;6.73;;
6626;SDS011;3349;49.830;8.748;2024-01-27T06:52:23;8.77;;;5.33;;
6626;SDS011;3349;49.830;8.748;2024-01-27T06:54:50;14.33;;;3.90;;
6626;SDS011;3349;49.830;8.748;2024-01-27T06:57:17;9.07;;;3.80;;
6626;SDS011;3349;49.830;8.748;2024-01-27T06:59:46;10.40;;;4.03;;
6626;SDS011;3349;49.830;8.748;2024-01-27T07:02:17;14.60;;;5.77;;
6626;SDS011;3349;49.830;8.748;2024-01-27T07:04:44;13.20;;;6.43;;
6626;SDS011;3349;49.830;8.748;2024-01-27T07:07:11;12.27;;;4.20;;
6626;SDS011;3349;49.830;8.748;2024-01-27T07:09:37;12.03;;;4.30;;
6626;SDS011;3349;49.830;8.748;2024-01-27T07:12:04;8.03;;;3.80;;
6626;SDS011;3349;49.830;8.748;2024-01-27T07:14:31;15.37;;;3.87;;
6626;SDS011;3349;49.830;8.748;2024-01-27T07:16:59;14.13;;;3.90;;
6626;SDS011;3349;49.830;8.748;2024-01-27T07:19:26;9.83;;;3.50;;
6626;SDS011;3349;49.830;8.748;2024-01-27T07:21:53;23.87;;;3.67;;
6626;SDS011;3349;49.830;8.748;2024-01-27T07:24:19;13.03;;;3.87;;
6626;SDS011;3349;49.830;8.748;2024-01-27T07:26:46;11.53;;;4.80;;
6626;SDS011;3349;49.830;8.748;2024-01-27T07:29:13;10.77;;;4.80;;
6626;SDS011;3349;49.830;8.748;2024-01-27T07:31:39;18.83;;;8.17;;
6626;SDS011;3349;49.830;8.748;2024-01-27T07:34:08;19.23;;;10.37;;
6626;SDS011;3349;49.830;8.748;2024-01-27T07:36:34;17.77;;;10.77;;
6626;SDS011;3349;49.830;8.748;2024-01-27T07:39:01;31.27;;;12.50;;
6626;SDS011;3349;49.830;8.748;2024-01-27T07:41:29;39.27;;;15.57;;
6626;SDS011;3349;49.830;8.748;2024-01-27T07:43:56;31.57;;;16.23;;
6626;SDS011;3349;49.830;8.748;2024-01-27T07:46:23;23.43;;;13.10;;
6626;SDS011;3349;49.830;8.748;2024-01-27T07:48:49;21.50;;;12.47;;
6626;SDS011;3349;49.830;8.748;2024-01-27T07:51:17;29.93;;;12.93;;
6626;SDS011;3349;49.830;8.748;2024-01-27T07:53:44;18.97;;;7.63;;
6626;SDS011;3349;49.830;8.748;2024-01-27T07:56:10;20.40;;;7.73;;
6626;SDS011;3349;49.830;8.748;2024-01-27T07:58:37;25.27;;;10.07;;
6626;SDS011;3349;49.830;8.748;2024-01-27T08:01:04;23.90;;;9.73;;
6626;SDS011;3349;49.830;8.748;2024-01-27T08:03:30;22.20;;;9.60;;
6626;SDS011;3349;49.830;8.748;2024-01-27T08:05:57;27.23;;;9.40;;
6626;SDS011;3349;49.830;8.748;2024-01-27T08:08:25;23.70;;;12.80;;
6626;SDS011;3349;49.830;8.748;2024-01-27T08:10:52;25.97;;;14.77;;
6626;SDS011;3349;49.830;8.748;2024-01-27T08:13:18;26.83;;;11.90;;
6626;SDS011;3349;49.830;8.748;2024-01-27T08:15:45;16.57;;;10.23;;
6626;SDS011;3349;49.830;8.748;2024-01-27T08:18:12;29.00;;;10.53;;
6626;SDS011;3349;49.830;8.748;2024-01-27T08:20:38;15.80;;;8.70;;
6626;SDS011;3349;49.830;8.748;2024-01-27T08:23:05;16.80;;;8.30;;
6626;SDS011;3349;49.830;8.748;2024-01-27T08:25:34;14.43;;;7.57;;
6626;SDS011;3349;49.830;8.748;2024-01-27T08:28:01;12.77;;;7.37;;
6626;SDS011;3349;49.830;8.748;2024-01-27T08:30:28;16.40;;;7.13;;
6626;SDS011;3349;49.830;8.748;2024-01-27T08:32:55;16.17;;;9.60;;
6626;SDS011;3349;49.830;8.748;2024-01-27T08:35:22;21.73;;;10.30;;
6626;SDS011;3349;49.830;8.748;2024-01-27T08:37:48;19.53;;;11.53;;
6626;SDS011;3349;49.830;8.748;2024-01-27T08:40:15;24.33;;;10.63;;
6626;SDS011;3349;49.830;8.748;2024-01-27T08:42:43;18.50;;;9.47;;
6626;SDS011;3349;49.830;8.748;2024-01-27T08:45:10;19.30;;;7.70;;
6626;SDS011;3349;49.830;8.748;2024-01-27T08:47:37;23.90;;;7.90;;
6626;SDS011;3349;49.830;8.748;2024-01-27T08:50:04;19.50;;;7.40;;
6626;SDS011;3349;49.830;8.748;2024-01-27T08:52:32;16.27;;;7.43;;
6626;SDS011;3349;49.830;8.748;2024-01-27T08:54:58;20.10;;;8.27;;
6626;SDS011;3349;49.830;8.748;2024-01-27T08:57:25;21.90;;;7.80;;
6626;SDS011;3349;49.830;8.748;2024-01-27T08:59:53;14.53;;;6.50;;
6626;SDS011;3349;49.830;8.748;2024-01-27T09:02:20;16.87;;;6.50;;
6626;SDS011;3349;49.830;8.748;2024-01-27T09:04:46;21.23;;;7.13;;
6626;SDS011;3349;49.830;8.748;2024-01-27T09:07:13;13.83;;;6.00;;
6626;SDS011;3349;49.830;8.748;2024-01-27T09:09:40;20.40;;;6.13;;
6626;SDS011;3349;49.830;8.748;2024-01-27T09:12:06;17.60;;;6.80;;
6626;SDS011;3349;49.830;8.748;2024-01-27T09:14:33;15.57;;;7.03;;
6626;SDS011;3349;49.830;8.748;2024-01-27T09:17:01;17.27;;;7.60;;
6626;SDS011;3349;49.830;8.748;2024-01-27T09:19:28;19.10;;;7.10;;
6626;SDS011;3349;49.830;8.748;2024-01-27T09:21:55;17.47;;;8.07;;
6626;SDS011;3349;49.830;8.748;2024-01-27T09:24:21;13.47;;;6.83;;
6626;SDS011;3349;49.830;8.748;2024-01-27T09:26:48;14.07;;;6.57;;
6626;SDS011;3349;49.830;8.748;2024-01-27T09:29:14;12.30;;;5.60;;
6626;SDS011;3349;49.830;8.748;2024-01-27T09:31:42;13.13;;;5.13;;
6626;SDS011;3349;49.830;8.748;2024-01-27T09:34:10;14.47;;;4.10;;
6626;SDS011;3349;49.830;8.748;2024-01-27T09:36:37;11.40;;;3.80;;
6626;SDS011;3349;49.830;8.748;2024-01-27T09:39:04;11.27;;;3.93;;
6626;SDS011;3349;49.830;8.748;2024-01-27T09:41:31;10.57;;;4.10;;
6626;SDS011;3349;49.830;8.748;2024-01-27T09:43:59;15.03;;;3.70;;
6626;SDS011;3349;49.830;8.748;2024-01-27T09:46:27;18.30;;;3.93;;
6626;SDS011;3349;49.830;8.748;2024-01-27T09:48:54;14.98;;;4.22;;
6626;SDS011;3349;49.830;8.748;2024-01-27T09:51:22;15.03;;;5.10;;
6626;SDS011;3349;49.830;8.748;2024-01-27T09:53:50;17.20;;;4.50;;
6626;SDS011;3349;49.830;8.748;2024-01-27T09:56:17;13.02;;;4.90;;
6626;SDS011;3349;49.830;8.748;2024-01-27T09:58:45;18.47;;;5.17;;
6626;SDS011;3349;49.830;8.748;2024-01-27T10:01:14;18.02;;;4.18;;
6626;SDS011;3349;49.830;8.748;2024-01-27T10:03:43;11.63;;;4.30;;
6626;SDS011;3349;49.830;8.748;2024-01-27T10:06:10;13.40;;;3.85;;
6626;SDS011;3349;49.830;8.748;2024-01-27T10:08:42;10.98;;;3.50;;
6626;SDS011;3349;49.830;8.748;2024-01-27T10:11:13;12.80;;;3.25;;
6626;SDS011;3349;49.830;8.748;2024-01-27T10:13:42;15.20;;;4.35;;
6626;SDS011;3349;49.830;8.748;2024-01-27T10:16:08;12.02;;;3.58;;
6626;SDS011;3349;49.830;8.748;2024-01-27T10:18:37;10.25;;;3.28;;
6626;SDS011;3349;49.830;8.748;2024-01-27T10:21:12;8.02;;;3.42;;
6626;SDS011;3349;49.830;8.748;2024-01-27T10:23:39;8.23;;;3.00;;
6626;SDS011;3349;49.830;8.748;2024-01-27T10:26:09;11.88;;;3.83;;
6626;SDS011;3349;49.830;8.748;2024-01-27T10:28:36;10.55;;;3.58;;
6626;SDS011;3349;49.830;8.748;2024-01-27T10:31:09;13.00;;;3.35;;
6626;SDS011;3349;49.830;8.748;2024-01-27T10:33:36;11.48;;;3.13;;
6626;SDS011;3349;49.830;8.748;2024-01-27T10:36:03;10.80;;;3.08;;
6626;SDS011;3349;49.830;8.748;2024-01-27T10:38:34;8.20;;;2.85;;
6626;SDS011;3349;49.830;8.748;2024-01-27T10:41:01;16.23;;;3.42;;
6626;SDS011;3349;49.830;8.748;2024-01-27T10:43:31;10.18;;;3.40;;
6626;SDS011;3349;49.830;8.748;2024-01-27T10:45:58;19.23;;;4.43;;
6626;SDS011;3349;49.830;8.748;2024-01-27T10:48:25;9.07;;;2.97;;
6626;SDS011;3349;49.830;8.748;2024-01-27T10:50:53;11.70;;;3.55;;
6626;SDS011;3349;49.830;8.748;2024-01-27T10:53:21;9.32;;;3.15;;
6626;SDS011;3349;49.830;8.748;2024-01-27T10:55:53;9.25;;;2.95;;
6626;SDS011;3349;49.830;8.748;2024-01-27T10:58:21;14.65;;;3.55;;
6626;SDS011;3349;49.830;8.748;2024-01-27T11:00:51;10.82;;;3.05;;
6626;SDS011;3349;49.830;8.748;2024-01-27T11:03:19;15.25;;;3.20;;
6626;SDS011;3349;49.830;8.748;2024-01-27T11:05:49;12.73;;;3.00;;
6626;SDS011;3349;49.830;8.748;2024-01-27T11:08:17;11.73;;;3.20;;
6626;SDS011;3349;49.830;8.748;2024-01-27T11:10:44;10.70;;;3.10;;
6626;SDS011;3349;49.830;8.748;2024-01-27T11:13:11;13.10;;;3.13;;
6626;SDS011;3349;49.830;8.748;2024-01-27T11:15:38;11.73;;;3.38;;
6626;SDS011;3349;49.830;8.748;2024-01-27T11:18:06;11.45;;;3.22;;
6626;SDS011;3349;49.830;8.748;2024-01-27T11:20:33;9.20;;;2.90;;
6626;SDS011;3349;49.830;8.748;2024-01-27T11:23:08;14.02;;;4.00;;
6626;SDS011;3349;49.830;8.748;2024-01-27T11:25:35;14.18;;;3.30;;
6626;SDS011;3349;49.830;8.748;2024-01-27T11:28:10;7.53;;;3.15;;
6626;SDS011;3349;49.830;8.748;2024-01-27T11:30:38;13.63;;;4.30;;
6626;SDS011;3349;49.830;8.748;2024-01-27T11:33:05;8.55;;;3.55;;
6626;SDS011;3349;49.830;8.748;2024-01-27T11:35:33;8.65;;;3.78;;
6626;SDS011;3349;49.830;8.748;2024-01-27T11:38:00;10.00;;;3.97;;
6626;SDS011;3349;49.830;8.748;2024-01-27T11:40:26;8.48;;;3.92;;
6626;SDS011;3349;49.830;8.748;2024-01-27T11:42:54;7.40;;;3.60;;
6626;SDS011;3349;49.830;8.748;2024-01-27T11:45:21;10.32;;;4.75;;
6626;SDS011;3349;49.830;8.748;2024-01-27T11:47:48;8.50;;;4.18;;
6626;SDS011;3349;49.830;8.748;2024-01-27T11:50:17;9.90;;;4.07;;
6626;SDS011;3349;49.830;8.748;2024-01-27T11:52:45;10.70;;;3.90;;
6626;SDS011;3349;49.830;8.748;2024-01-27T11:55:12;9.40;;;3.85;;
6626;SDS011;3349;49.830;8.748;2024-01-27T11:57:41;10.05;;;3.42;;
6626;SDS011;3349;49.830;8.748;2024-01-27T12:00:08;9.40;;;3.15;;
6626;SDS011;3349;49.830;8.748;2024-01-27T12:02:35;9.38;;;4.10;;
6626;SDS011;3349;49.830;8.748;2024-01-27T12:05:02;10.63;;;4.15;;
6626;SDS011;3349;49.830;8.748;2024-01-27T12:07:31;7.07;;;3.47;;
6626;SDS011;3349;49.830;8.748;2024-01-27T12:09:58;7.85;;;3.53;;
6626;SDS011;3349;49.830;8.748;2024-01-27T12:12:25;11.00;;;4.32;;
6626;SDS011;3349;49.830;8.748;2024-01-27T12:14:51;10.38;;;4.18;;
6626;SDS011;3349;49.830;8.748;2024-01-27T12:17:18;8.35;;;3.80;;
6626;SDS011;3349;49.830;8.748;2024-01-27T12:19:46;8.40;;;3.90;;
6626;SDS011;3349;49.830;8.748;2024-01-27T12:22:20;7.88;;;3.90;;
6626;SDS011;3349;49.830;8.748;2024-01-27T12:24:49;9.38;;;4.13;;
6626;SDS011;3349;49.830;8.748;2024-01-27T12:27:16;10.00;;;4.15;;
6626;SDS011;3349;49.830;8.748;2024-01-27T12:29:43;9.80;;;3.83;;
6626;SDS011;3349;49.830;8.748;2024-01-27T12:32:12;8.80;;;4.03;;
6626;SDS011;3349;49.830;8.748;2024-01-27T12:34:41;9.57;;;4.13;;
6626;SDS011;3349;49.830;8.748;2024-01-27T12:37:10;7.38;;;3.60;;
6626;SDS011;3349;49.830;8.748;2024-01-27T12:39:38;7.10;;;3.55;;
6626;SDS011;3349;49.830;8.748;2024-01-27T12:42:08;9.98;;;3.85;;
6626;SDS011;3349;49.830;8.748;2024-01-27T12:44:35;10.07;;;4.20;;
6626;SDS011;3349;49.830;8.748;2024-01-27T12:47:02;10.52;;;4.53;;
6626;SDS011;3349;49.830;8.748;2024-01-27T12:49:29;9.35;;;4.07;;
6626;SDS011;3349;49.830;8.748;2024-01-27T12:51:56;10.07;;;4.15;;
6626;SDS011;3349;49.830;8.748;2024-01-27T12:54:22;9.95;;;4.00;;
6626;SDS011;3349;49.830;8.748;2024-01-27T12:56:49;10.00;;;3.85;;
6626;SDS011;3349;49.830;8.748;2024-01-27T12:59:17;11.82;;;4.50;;
6626;SDS011;3349;49.830;8.748;2024-01-27T13:01:44;9.18;;;3.75;;
6626;SDS011;3349;49.830;8.748;2024-01-27T13:04:11;10.38;;;3.67;;
6626;SDS011;3349;49.830;8.748;2024-01-27T13:06:39;6.95;;;3.25;;
6626;SDS011;3349;49.830;8.748;2024-01-27T13:09:06;8.95;;;3.58;;
6626;SDS011;3349;49.830;8.748;2024-01-27T13:11:36;11.23;;;4.05;;
6626;SDS011;3349;49.830;8.748;2024-01-27T13:14:02;8.88;;;3.75;;
6626;SDS011;3349;49.830;8.748;2024-01-27T13:16:31;8.82;;;3.55;;
6626;SDS011;3349;49.830;8.748;2024-01-27T13:18:57;8.95;;;3.38;;
6626;SDS011;3349;49.830;8.748;2024-01-27T13:21:24;7.60;;;3.60;;
6626;SDS011;3349;49.830;8.748;2024-01-27T13:23:51;8.05;;;3.78;;
6626;SDS011;3349;49.830;8.748;2024-01-27T13:26:18;10.23;;;4.22;;
6626;SDS011;3349;49.830;8.748;2024-01-27T13:28:45;10.48;;;4.28;;
6626;SDS011;3349;49.830;8.748;2024-01-27T13:31:11;8.27;;;3.67;;
6626;SDS011;3349;49.830;8.748;2024-01-27T13:33:39;10.13;;;3.80;;
6626;SDS011;3349;49.830;8.748;2024-01-27T13:36:06;7.90;;;3.40;;
6626;SDS011;3349;49.830;8.748;2024-01-27T13:38:33;9.65;;;4.38;;
6626;SDS011;3349;49.830;8.748;2024-01-27T13:41:00;8.07;;;3.90;;
6626;SDS011;3349;49.830;8.748;2024-01-27T13:43:27;10.60;;;3.72;;
6626;SDS011;3349;49.830;8.748;2024-01-27T13:45:53;8.45;;;3.53;;
6626;SDS011;3349;49.830;8.748;2024-01-27T13:48:20;10.27;;;3.78;;
6626;SDS011;3349;49.830;8.748;2024-01-27T13:50:48;7.38;;;3.70;;
6626;SDS011;3349;49.830;8.748;2024-01-27T13:53:15;15.05;;;4.10;;
6626;SDS011;3349;49.830;8.748;2024-01-27T13:55:42;12.00;;;3.95;;
6626;SDS011;3349;49.830;8.748;2024-01-27T13:58:09;6.75;;;3.47;;
6626;SDS011;3349;49.830;8.748;2024-01-27T14:00:36;9.68;;;3.72;;
6626;SDS011;3349;49.830;8.748;2024-01-27T14:03:03;11.45;;;3.70;;
6626;SDS011;3349;49.830;8.748;2024-01-27T14:05:29;9.48;;;3.35;;
6626;SDS011;3349;49.830;8.748;2024-01-27T14:07:57;7.95;;;3.55;;
6626;SDS011;3349;49.830;8.748;2024-01-27T14:10:24;10.55;;;3.63;;
6626;SDS011;3349;49.830;8.748;2024-01-27T14:12:51;10.40;;;3.60;;
6626;SDS011;3349;49.830;8.748;2024-01-27T14:15:18;12.65;;;3.65;;
6626;SDS011;3349;49.830;8.748;2024-01-27T14:17:45;8.02;;;3.67;;
6626;SDS011;3349;49.830;8.748;2024-01-27T14:20:12;11.80;;;3.20;;
6626;SDS011;3349;49.830;8.748;2024-01-27T14:22:39;9.55;;;3.00;;
6626;SDS011;3349;49.830;8.748;2024-01-27T14:25:07;8.50;;;3.60;;
6626;SDS011;3349;49.830;8.748;2024-01-27T14:27:34;10.48;;;3.60;;
6626;SDS011;3349;49.830;8.748;2024-01-27T14:30:01;9.85;;;3.15;;
6626;SDS011;3349;49.830;8.748;2024-01-27T14:32:28;10.63;;;3.97;;
6626;SDS011;3349;49.830;8.748;2024-01-27T14:34:55;9.35;;;3.20;;
6626;SDS011;3349;49.830;8.748;2024-01-27T14:37:22;8.23;;;2.97;;
6626;SDS011;3349;49.830;8.748;2024-01-27T14:39:48;8.15;;;2.78;;
6626;SDS011;3349;49.830;8.748;2024-01-27T14:42:16;12.55;;;3.22;;
6626;SDS011;3349;49.830;8.748;2024-01-27T14:44:43;12.80;;;3.63;;
6626;SDS011;3349;49.830;8.748;2024-01-27T14:47:10;7.03;;;3.42;;
6626;SDS011;3349;49.830;8.748;2024-01-27T14:49:37;11.82;;;3.13;;
6626;SDS011;3349;49.830;8.748;2024-01-27T14:52:04;13.23;;;3.42;;
6626;SDS011;3349;49.830;8.748;2024-01-27T14:54:31;10.73;;;3.13;;
6626;SDS011;3349;49.830;8.748;2024-01-27T14:56:59;13.10;;;3.20;;
6626;SDS011;3349;49.830;8.748;2024-01-27T14:59:27;9.48;;;2.72;;
6626;SDS011;3349;49.830;8.748;2024-01-27T15:01:53;10.07;;;2.97;;
6626;SDS011;3349;49.830;8.748;2024-01-27T15:04:21;9.32;;;3.17;;